Pipe Spring National Monumen, Arizona
Current Conditions -  °F | °C
As of 12:15 AM on Thursday 18 Dec 2014 (Local Time) from KAZC Reporting Station
Moderate Rain Moderate Rain  
Wind Chill: 37°   Ceiling: 2700
Heat Index: 37°   Visibility: 10mi
Dew Point: 37°   Wind: 0mph
Humidity: 98%   Direction: NA
Pressure: 30.12"   Gusts: NA
Location:  36.9484°N, 112.529°W
Report Text: KAZC 180715Z AUTO 00000KT 10SM RA BKN027 OVC036 03/03 A3012 RMK AO2 T00290026
Loading
Personal Weather Stations






























Interactive Weather Map New forecast layout! Learn more

10-Day Weather Forecast

Advertisements
Track Severe Weather on mobile